Berlin, Germany
Current Conditions -  °F | °C
As of 1:50 AM on Tuesday 25 Nov 2014 (Local Time) from EDDT Reporting Station
Clear Clear  
Wind Chill: 34°   Ceiling: Unl
Heat Index: 37°   Visibility: 6mi
Dew Point: 37°   Wind: 5mph
Humidity: 100%   Direction: 270°W
Pressure: 30.27"   Gusts: NA
Location:  52.52°N, 13.41°E
Report Text: EDDT 250050Z 27004KT CAVOK 03/03 Q1025
Loading
Personal Weather Stations






























Interactive Weather Map New forecast layout! Learn more

10-Day Weather Forecast

Advertisements
Track Severe Weather on mobile